Terminal Aerodrome Forecast
Issued by NWS

Home | Current Version | Previous Version | Text Only | Print | Product List | Glossary On
Versions: 1 2 3 4 5 6 7 8 9 10 11 12 13 14 15 16
000
FTUS43 KDVN 261138
TAFBRL
TAF
KBRL 261138Z 2612/2712 28006KT P6SM BKN080
     FM261500 20010KT P6SM SCT050 PROB30 2700/2704 4SM TSRA BKN040CB
     FM270400 18004KT P6SM VCTS BKN040CB=

USA.gov is the U.S. government's official web portal to all federal, state and local government web resources and services.